Time;durP1;ratioP1;P1;durP2;ratioP2;P2;SDS_P1;SDS_P2;PMS_P1;PMS_P2;Temp;Humidity;BMP_temperature;BMP_pressure;BME280_temperature;BME280_humidity;BME280_pressure;Samples;Min_cycle;Max_cycle;Signal;HPM_P1;HPM_P2
2023/02/08 00:00:49;;;;;;;47.43;23.60;;;;;;;;;;4348579;32;355159;-88
2023/02/08 00:03:16;;;;;;;38.00;20.00;;;;;;;;;;4359258;32;318312;-87
2023/02/08 00:05:43;;;;;;;36.93;20.93;;;;;;;;;;4350026;32;317646;-87
2023/02/08 00:08:10;;;;;;;36.23;20.93;;;;;;;;;;4358992;32;317587;-87
2023/02/08 00:10:37;;;;;;;38.23;20.73;;;;;;;;;;4359223;32;318680;-87
2023/02/08 00:13:03;;;;;;;40.63;24.03;;;;;;;;;;4349262;32;318427;-88
2023/02/08 00:15:33;;;;;;;36.83;22.43;;;;;;;;;;4360272;32;318301;-88
2023/02/08 00:18:01;;;;;;;34.87;18.73;;;;;;;;;;4350239;32;317789;-88
2023/02/08 00:20:28;;;;;;;36.83;22.02;;;;;;;;;;4358303;32;317399;-88
2023/02/08 00:22:56;;;;;;;27.80;18.73;;;;;;;;;;4350439;32;318279;-87
2023/02/08 00:25:22;;;;;;;39.03;22.30;;;;;;;;;;4359210;32;318225;-87
2023/02/08 00:27:49;;;;;;;30.83;19.33;;;;;;;;;;4349626;32;339122;-87
2023/02/08 00:30:16;;;;;;;30.43;18.43;;;;;;;;;;4360151;32;318323;-88
2023/02/08 00:32:43;;;;;;;29.67;17.23;;;;;;;;;;4350386;32;317686;-85
2023/02/08 00:35:11;;;;;;;30.77;15.67;;;;;;;;;;4361459;32;317337;-88
2023/02/08 00:37:38;;;;;;;29.03;16.07;;;;;;;;;;4364120;32;317353;-88
2023/02/08 00:40:05;;;;;;;28.93;17.57;;;;;;;;;;4355835;32;318444;-87
2023/02/08 00:42:32;;;;;;;34.77;19.10;;;;;;;;;;4368642;32;317508;-87
2023/02/08 00:44:59;;;;;;;33.20;19.33;;;;;;;;;;4358497;32;317622;-87
2023/02/08 00:47:26;;;;;;;36.37;22.20;;;;;;;;;;4370291;32;318249;-88
2023/02/08 00:49:53;;;;;;;30.57;19.93;;;;;;;;;;4353719;32;318108;-88
2023/02/08 00:52:21;;;;;;;33.40;17.60;;;;;;;;;;4360559;32;318379;-88
2023/02/08 00:54:48;;;;;;;23.03;14.40;;;;;;;;;;4351481;32;318309;-88
2023/02/08 00:57:15;;;;;;;25.77;15.27;;;;;;;;;;4361100;32;318490;-88
2023/02/08 00:59:42;;;;;;;18.80;12.43;;;;;;;;;;4360691;32;318229;-87
2023/02/08 01:02:09;;;;;;;25.03;15.43;;;;;;;;;;4347586;32;417030;-89
2023/02/08 01:04:36;;;;;;;27.57;15.53;;;;;;;;;;4360123;32;317488;-87
2023/02/08 01:07:04;;;;;;;33.33;18.93;;;;;;;;;;4349768;32;318581;-87
2023/02/08 01:09:32;;;;;;;30.57;18.57;;;;;;;;;;4359702;32;318360;-87
2023/02/08 01:12:00;;;;;;;38.90;18.87;;;;;;;;;;4351546;32;318080;-87
2023/02/08 01:14:26;;;;;;;24.73;15.23;;;;;;;;;;4359475;32;318224;-87
2023/02/08 01:16:53;;;;;;;28.07;16.37;;;;;;;;;;4350136;32;318212;-87
2023/02/08 01:19:20;;;;;;;34.50;16.83;;;;;;;;;;4359823;32;318687;-87
2023/02/08 01:21:48;;;;;;;28.73;17.40;;;;;;;;;;4350055;32;318305;-87
2023/02/08 01:24:15;;;;;;;34.53;18.77;;;;;;;;;;4357749;32;337069;-87
2023/02/08 01:26:43;;;;;;;38.67;21.97;;;;;;;;;;4356256;32;318515;-87
2023/02/08 01:29:10;;;;;;;32.23;21.53;;;;;;;;;;4352408;32;414572;-87
2023/02/08 01:31:39;;;;;;;33.67;20.40;;;;;;;;;;4358171;32;318344;-87
2023/02/08 01:34:07;;;;;;;36.20;21.83;;;;;;;;;;4348512;32;317584;-87
2023/02/08 01:36:35;;;;;;;38.03;21.87;;;;;;;;;;4358660;32;318316;-88
2023/02/08 01:39:03;;;;;;;38.50;23.37;;;;;;;;;;4347481;32;317731;-88
2023/02/08 01:41:32;;;;;;;38.10;24.33;;;;;;;;;;4359262;32;317546;-87
2023/02/08 01:44:04;;;;;;;41.20;24.87;;;;;;;;;;4348168;32;317679;-87
2023/02/08 01:46:32;;;;;;;33.83;21.70;;;;;;;;;;4358918;32;317662;-88
2023/02/08 01:49:04;;;;;;;41.77;24.40;;;;;;;;;;4348812;32;317753;-87
2023/02/08 01:51:37;;;;;;;41.90;23.10;;;;;;;;;;4359060;32;318460;-88
2023/02/08 01:54:07;;;;;;;42.80;22.07;;;;;;;;;;4348358;32;318656;-87
2023/02/08 01:56:37;;;;;;;37.33;21.67;;;;;;;;;;4358713;32;317389;-87
2023/02/08 01:59:10;;;;;;;39.57;23.20;;;;;;;;;;4347616;32;318290;-87
2023/02/08 02:01:40;;;;;;;38.30;23.00;;;;;;;;;;4359136;32;318619;-88
2023/02/08 02:04:08;;;;;;;41.57;24.10;;;;;;;;;;4347686;32;317582;-87
2023/02/08 02:06:40;;;;;;;36.53;22.83;;;;;;;;;;4357878;32;318275;-87
2023/02/08 02:09:14;;;;;;;38.47;24.13;;;;;;;;;;4347725;32;318107;-87
2023/02/08 02:11:41;;;;;;;42.37;24.87;;;;;;;;;;4357962;32;357956;-87
2023/02/08 02:14:10;;;;;;;40.63;24.07;;;;;;;;;;4344593;32;417685;-87
2023/02/08 02:16:37;;;;;;;47.70;25.33;;;;;;;;;;4357745;32;318223;-87
2023/02/08 02:19:09;;;;;;;45.57;23.77;;;;;;;;;;4346768;32;348496;-87
2023/02/08 02:21:55;;;;;;;43.57;25.23;;;;;;;;;;4358983;32;317773;-87
2023/02/08 02:25:07;;;;;;;45.67;25.53;;;;;;;;;;4346170;32;417236;-87
2023/02/08 02:27:52;;;;;;;44.50;22.80;;;;;;;;;;4345433;32;416400;-88
2023/02/08 02:31:17;;;;;;;36.67;19.77;;;;;;;;;;4346088;32;418316;-87
2023/02/08 02:33:58;;;;;;;34.67;19.73;;;;;;;;;;4299879;33;418545;-89
2023/02/08 02:36:33;;;;;;;34.23;20.50;;;;;;;;;;4312152;33;317649;-88
2023/02/08 02:39:09;;;;;;;35.83;20.80;;;;;;;;;;4335808;32;318479;-87
2023/02/08 02:44:38;;;;;;;48.07;25.70;;;;;;;;;;4346386;32;388976;-88
2023/02/08 02:47:10;;;;;;;42.57;23.67;;;;;;;;;;4348478;32;317620;-88
2023/02/08 02:49:48;;;;;;;35.20;23.50;;;;;;;;;;4358540;32;318493;-87
2023/02/08 02:52:20;;;;;;;40.33;25.30;;;;;;;;;;4344530;32;418285;-87
2023/02/08 02:54:51;;;;;;;38.63;22.83;;;;;;;;;;4348745;32;317640;-87
2023/02/08 02:57:24;;;;;;;37.00;23.40;;;;;;;;;;4358117;32;318373;-88
2023/02/08 02:59:51;;;;;;;34.30;21.03;;;;;;;;;;4348361;32;317563;-88
2023/02/08 03:02:18;;;;;;;37.30;19.40;;;;;;;;;;4357497;32;317798;-87
2023/02/08 03:04:53;;;;;;;35.57;21.30;;;;;;;;;;4348842;32;318414;-88
2023/02/08 03:07:43;;;;;;;37.63;21.27;;;;;;;;;;4359562;32;356890;-88
2023/02/08 03:10:24;;;;;;;44.63;25.17;;;;;;;;;;4346967;32;419200;-88
2023/02/08 03:12:58;;;;;;;46.67;25.33;;;;;;;;;;4350145;32;324665;-88
2023/02/08 03:15:35;;;;;;;59.80;34.43;;;;;;;;;;4361059;32;317597;-87
2023/02/08 03:18:10;;;;;;;50.13;29.70;;;;;;;;;;4351647;32;318565;-88
2023/02/08 03:20:41;;;;;;;36.93;23.20;;;;;;;;;;4361464;32;318127;-88
2023/02/08 03:23:15;;;;;;;36.23;22.10;;;;;;;;;;4350067;32;331426;-88
2023/02/08 03:25:50;;;;;;;31.00;20.73;;;;;;;;;;4361267;32;317712;-88
2023/02/08 03:28:23;;;;;;;36.30;22.03;;;;;;;;;;4349398;32;416806;-87
2023/02/08 03:31:00;;;;;;;30.30;20.57;;;;;;;;;;4351547;32;317771;-87
2023/02/08 03:33:35;;;;;;;31.00;18.87;;;;;;;;;;4360975;32;318234;-88
2023/02/08 03:36:06;;;;;;;33.77;18.77;;;;;;;;;;4350265;32;335132;-87
2023/02/08 03:38:37;;;;;;;27.60;16.13;;;;;;;;;;4361270;32;317604;-87
2023/02/08 03:41:07;;;;;;;28.27;17.10;;;;;;;;;;4352931;32;317850;-87
2023/02/08 03:43:38;;;;;;;28.87;17.27;;;;;;;;;;4361107;32;318151;-87
2023/02/08 03:46:10;;;;;;;29.03;17.07;;;;;;;;;;4349905;32;318284;-87
2023/02/08 03:48:40;;;;;;;35.13;18.87;;;;;;;;;;4359361;32;325292;-88
2023/02/08 03:51:09;;;;;;;35.13;17.50;;;;;;;;;;4350010;32;318677;-88
2023/02/08 03:53:39;;;;;;;47.17;20.83;;;;;;;;;;4360721;32;317614;-87
2023/02/08 03:56:11;;;;;;;37.63;21.20;;;;;;;;;;4349503;32;318550;-88
2023/02/08 03:58:43;;;;;;;34.60;20.10;;;;;;;;;;4360118;32;336687;-87
2023/02/08 04:01:16;;;;;;;35.33;20.60;;;;;;;;;;4347794;32;417338;-87
2023/02/08 04:03:47;;;;;;;47.40;24.53;;;;;;;;;;4357147;32;318571;-87
2023/02/08 04:06:16;;;;;;;57.87;26.97;;;;;;;;;;4359814;32;318476;-87
2023/02/08 04:08:42;;;;;;;85.17;43.43;;;;;;;;;;4360282;32;318454;-88
2023/02/08 04:11:09;;;;;;;73.70;39.83;;;;;;;;;;4347507;32;417242;-88
2023/02/08 04:13:36;;;;;;;63.00;37.20;;;;;;;;;;4359764;32;318665;-88
2023/02/08 04:16:03;;;;;;;67.10;35.50;;;;;;;;;;4350006;32;318188;-88
2023/02/08 04:18:30;;;;;;;68.37;39.00;;;;;;;;;;4358496;32;318540;-88
2023/02/08 04:20:57;;;;;;;78.57;39.50;;;;;;;;;;4348551;32;317849;-88
2023/02/08 04:23:25;;;;;;;56.47;32.10;;;;;;;;;;4360235;32;318390;-88
2023/02/08 04:25:51;;;;;;;51.30;30.33;;;;;;;;;;4348790;32;354871;-87
2023/02/08 04:28:18;;;;;;;33.50;21.83;;;;;;;;;;4359767;32;318307;-87
2023/02/08 04:30:45;;;;;;;33.60;17.93;;;;;;;;;;4349599;32;318401;-87
2023/02/08 04:33:13;;;;;;;25.03;16.33;;;;;;;;;;4358908;32;319024;-87
2023/02/08 04:35:40;;;;;;;25.83;16.10;;;;;;;;;;4357458;32;318918;-87
2023/02/08 04:38:07;;;;;;;32.50;20.73;;;;;;;;;;4354841;32;318128;-88
2023/02/08 04:40:35;;;;;;;87.40;39.70;;;;;;;;;;4359099;32;318453;-88
2023/02/08 04:43:02;;;;;;;73.87;36.87;;;;;;;;;;4350009;32;318821;-87
2023/02/08 04:45:30;;;;;;;99.83;43.77;;;;;;;;;;4358578;32;317660;-87
2023/02/08 04:47:57;;;;;;;106.97;44.90;;;;;;;;;;4350194;32;317607;-87
2023/02/08 04:50:24;;;;;;;177.97;64.10;;;;;;;;;;4359974;32;319418;-87
2023/02/08 04:52:51;;;;;;;140.83;58.27;;;;;;;;;;4350248;32;319420;-88
2023/02/08 04:55:18;;;;;;;160.17;67.33;;;;;;;;;;4360921;32;319860;-89
2023/02/08 04:57:46;;;;;;;102.77;47.20;;;;;;;;;;4349822;32;318881;-88
2023/02/08 05:00:14;;;;;;;72.43;33.37;;;;;;;;;;4360994;32;318719;-88
2023/02/08 05:02:41;;;;;;;55.37;32.20;;;;;;;;;;4360065;32;347993;-88
2023/02/08 05:05:08;;;;;;;50.37;28.77;;;;;;;;;;4351016;32;318146;-88
2023/02/08 05:07:35;;;;;;;55.37;30.80;;;;;;;;;;4359918;32;317799;-88
2023/02/08 05:10:02;;;;;;;53.13;30.27;;;;;;;;;;4348282;32;329021;-87
2023/02/08 05:12:28;;;;;;;41.33;24.77;;;;;;;;;;4359165;32;317862;-88
2023/02/08 05:14:57;;;;;;;32.33;19.50;;;;;;;;;;4349774;32;318294;-87
2023/02/08 05:17:23;;;;;;;36.60;19.57;;;;;;;;;;4359108;32;317767;-87
2023/02/08 05:19:50;;;;;;;36.73;22.27;;;;;;;;;;4349295;32;318318;-87
2023/02/08 05:22:17;;;;;;;31.87;20.07;;;;;;;;;;4358759;32;318375;-88
2023/02/08 05:24:44;;;;;;;32.53;20.77;;;;;;;;;;4348480;32;318503;-87
2023/02/08 05:27:11;;;;;;;25.67;15.50;;;;;;;;;;4359565;32;318140;-87
2023/02/08 05:29:37;;;;;;;26.30;17.20;;;;;;;;;;4360206;32;318560;-87
2023/02/08 05:32:06;;;;;;;24.03;16.63;;;;;;;;;;4349009;32;318292;-88
2023/02/08 05:34:32;;;;;;;31.77;18.73;;;;;;;;;;4359304;32;318132;-88
2023/02/08 05:36:59;;;;;;;34.97;19.83;;;;;;;;;;4349843;32;318633;-87
2023/02/08 05:39:26;;;;;;;40.03;18.93;;;;;;;;;;4358154;32;318277;-87
2023/02/08 05:41:53;;;;;;;37.33;21.50;;;;;;;;;;4348693;32;318378;-88
2023/02/08 05:44:20;;;;;;;50.90;28.67;;;;;;;;;;4360205;32;319680;-88
2023/02/08 05:46:47;;;;;;;51.83;25.83;;;;;;;;;;4350304;32;318400;-88
2023/02/08 05:49:15;;;;;;;50.27;26.47;;;;;;;;;;4360849;32;317718;-89
2023/02/08 05:51:42;;;;;;;52.43;28.73;;;;;;;;;;4358343;32;347802;-86
2023/02/08 05:54:09;;;;;;;61.03;32.27;;;;;;;;;;4346862;32;416971;-87
2023/02/08 05:56:36;;;;;;;77.40;42.33;;;;;;;;;;4358916;32;326341;-87
2023/02/08 05:59:03;;;;;;;80.50;38.90;;;;;;;;;;4349020;32;318435;-89
2023/02/08 06:01:32;;;;;;;70.27;36.70;;;;;;;;;;4357763;32;318496;-88
2023/02/08 06:03:59;;;;;;;66.90;30.67;;;;;;;;;;4351967;32;318043;-87
2023/02/08 06:06:27;;;;;;;64.23;31.83;;;;;;;;;;4360041;32;318800;-88
2023/02/08 06:08:54;;;;;;;48.63;28.27;;;;;;;;;;4350053;32;318424;-87
2023/02/08 06:11:22;;;;;;;38.03;23.43;;;;;;;;;;4358293;32;319358;-87
2023/02/08 06:13:48;;;;;;;48.17;27.47;;;;;;;;;;4348282;32;319378;-87
2023/02/08 06:16:16;;;;;;;51.83;28.90;;;;;;;;;;4359002;32;319185;-88
2023/02/08 06:18:43;;;;;;;48.60;27.63;;;;;;;;;;4358980;32;320803;-86
2023/02/08 06:21:11;;;;;;;60.07;32.70;;;;;;;;;;4346265;32;418114;-88
2023/02/08 06:23:40;;;;;;;59.37;33.70;;;;;;;;;;4360434;32;318982;-88
2023/02/08 06:26:07;;;;;;;69.73;40.70;;;;;;;;;;4350000;32;318737;-89
2023/02/08 06:28:33;;;;;;;64.33;34.30;;;;;;;;;;4359028;32;319041;-88
2023/02/08 06:31:01;;;;;;;61.80;35.10;;;;;;;;;;4348295;32;319248;-88
2023/02/08 06:33:28;;;;;;;46.90;26.47;;;;;;;;;;4357681;32;319520;-88
2023/02/08 06:35:55;;;;;;;67.93;36.43;;;;;;;;;;4347100;32;318697;-88
2023/02/08 06:38:22;;;;;;;50.77;29.40;;;;;;;;;;4356615;32;319460;-88
2023/02/08 06:40:54;;;;;;;56.97;31.60;;;;;;;;;;4347734;32;319541;-88
2023/02/08 06:43:20;;;;;;;57.07;31.63;;;;;;;;;;4358422;32;319258;-89
2023/02/08 06:45:47;;;;;;;55.77;30.87;;;;;;;;;;4347799;32;319537;-89
2023/02/08 06:48:15;;;;;;;62.03;31.73;;;;;;;;;;4357708;32;318789;-88
2023/02/08 06:50:42;;;;;;;61.03;32.93;;;;;;;;;;4358828;32;318783;-89
2023/02/08 06:53:08;;;;;;;58.53;32.13;;;;;;;;;;4345469;32;418410;-88
2023/02/08 06:55:35;;;;;;;84.50;48.63;;;;;;;;;;4358042;32;319334;-88
2023/02/08 06:58:04;;;;;;;48.20;27.13;;;;;;;;;;4348002;32;318565;-88
2023/02/08 07:00:31;;;;;;;45.73;25.80;;;;;;;;;;4358356;32;319244;-89
2023/02/08 07:02:59;;;;;;;44.67;22.37;;;;;;;;;;4347433;32;319249;-88
2023/02/08 07:05:26;;;;;;;37.30;24.00;;;;;;;;;;4356763;32;319252;-87
2023/02/08 07:07:53;;;;;;;40.30;24.40;;;;;;;;;;4346444;32;340170;-88
2023/02/08 07:10:20;;;;;;;42.87;23.73;;;;;;;;;;4357078;32;319369;-91
2023/02/08 07:12:47;;;;;;;40.20;24.77;;;;;;;;;;4347425;32;347379;-89
2023/02/08 07:15:15;;;;;;;42.90;25.70;;;;;;;;;;4357598;32;340089;-87
2023/02/08 07:17:42;;;;;;;41.83;23.27;;;;;;;;;;4355888;32;318353;-87
2023/02/08 07:20:11;;;;;;;51.73;26.60;;;;;;;;;;4344180;32;395740;-87
2023/02/08 07:22:38;;;;;;;57.60;28.00;;;;;;;;;;4357495;32;318443;-89
2023/02/08 07:25:06;;;;;;;71.33;30.57;;;;;;;;;;4349744;32;318245;-87
2023/02/08 07:27:33;;;;;;;127.67;51.70;;;;;;;;;;4357074;32;318335;-86
2023/02/08 07:29:59;;;;;;;86.00;37.87;;;;;;;;;;4347863;32;319196;-86
2023/02/08 07:32:28;;;;;;;42.00;25.07;;;;;;;;;;4357152;32;318509;-86
2023/02/08 07:34:54;;;;;;;38.50;22.97;;;;;;;;;;4348533;32;318492;-87
2023/02/08 07:37:21;;;;;;;75.03;37.07;;;;;;;;;;4357266;32;317681;-87
2023/02/08 07:39:48;;;;;;;55.43;30.37;;;;;;;;;;4346452;32;318324;-86
2023/02/08 07:42:15;;;;;;;45.87;27.60;;;;;;;;;;4355622;32;317831;-87
2023/02/08 07:44:42;;;;;;;177.57;79.13;;;;;;;;;;4357437;32;318551;-86
2023/02/08 07:47:08;;;;;;;76.60;40.53;;;;;;;;;;4346778;32;319273;-86
2023/02/08 07:49:37;;;;;;;46.37;26.03;;;;;;;;;;4355844;32;317528;-86
2023/02/08 07:52:03;;;;;;;53.77;28.80;;;;;;;;;;4349660;32;318772;-86
2023/02/08 07:54:30;;;;;;;48.10;26.80;;;;;;;;;;4359523;32;318246;-86
2023/02/08 07:56:57;;;;;;;29.70;16.93;;;;;;;;;;4348827;32;318382;-86
2023/02/08 07:59:24;;;;;;;31.87;20.80;;;;;;;;;;4358818;32;318302;-85
2023/02/08 08:01:51;;;;;;;34.27;20.97;;;;;;;;;;4348925;32;318355;-86
2023/02/08 08:04:18;;;;;;;32.80;17.77;;;;;;;;;;4358921;32;318286;-85
2023/02/08 08:06:48;;;;;;;20.87;13.77;;;;;;;;;;4348766;32;318245;-85
2023/02/08 08:09:15;;;;;;;24.40;16.60;;;;;;;;;;4357989;32;318343;-85
2023/02/08 08:11:42;;;;;;;26.00;15.73;;;;;;;;;;4359508;32;318188;-86
2023/02/08 08:14:08;;;;;;;20.70;13.90;;;;;;;;;;4346393;32;417487;-86
2023/02/08 08:16:35;;;;;;;19.97;12.87;;;;;;;;;;4359368;32;318457;-86
2023/02/08 08:19:02;;;;;;;21.40;14.57;;;;;;;;;;4348564;32;318209;-85
2023/02/08 08:21:29;;;;;;;39.43;21.10;;;;;;;;;;4359583;32;316502;-85
2023/02/08 08:23:57;;;;;;;42.10;24.93;;;;;;;;;;4350129;32;317428;-85
2023/02/08 08:26:24;;;;;;;30.63;20.80;;;;;;;;;;4359646;32;318458;-85
2023/02/08 08:28:50;;;;;;;34.17;20.20;;;;;;;;;;4350452;32;318421;-86
2023/02/08 08:31:20;;;;;;;27.13;18.70;;;;;;;;;;4357833;32;317755;-85
2023/02/08 08:33:47;;;;;;;28.40;16.63;;;;;;;;;;4347277;32;318185;-86
2023/02/08 08:36:14;;;;;;;29.00;17.77;;;;;;;;;;4356801;32;318491;-86
2023/02/08 08:38:41;;;;;;;25.70;17.77;;;;;;;;;;4356608;32;317499;-86
2023/02/08 08:41:11;;;;;;;23.77;15.40;;;;;;;;;;4357247;32;318852;-85
2023/02/08 08:43:38;;;;;;;19.37;13.37;;;;;;;;;;4355730;32;317716;-86
2023/02/08 08:46:06;;;;;;;19.70;13.50;;;;;;;;;;4346777;32;318254;-84
2023/02/08 08:48:33;;;;;;;31.77;15.73;;;;;;;;;;4356956;32;316605;-83
2023/02/08 08:51:00;;;;;;;26.93;16.27;;;;;;;;;;4347414;32;317555;-85
2023/02/08 08:53:27;;;;;;;25.20;15.67;;;;;;;;;;4357051;32;318748;-85
2023/02/08 08:55:54;;;;;;;28.50;17.37;;;;;;;;;;4346151;32;317726;-86
2023/02/08 08:58:23;;;;;;;31.13;17.57;;;;;;;;;;4356753;32;317474;-87
2023/02/08 09:00:51;;;;;;;23.90;16.17;;;;;;;;;;4346634;32;318347;-86
2023/02/08 09:03:17;;;;;;;27.33;14.80;;;;;;;;;;4342930;32;318683;-89
2023/02/08 09:05:44;;;;;;;24.57;15.13;;;;;;;;;;4361226;32;318214;-86
2023/02/08 09:08:12;;;;;;;19.33;12.17;;;;;;;;;;4350893;32;318404;-85
2023/02/08 09:10:39;;;;;;;21.03;13.03;;;;;;;;;;4357639;32;317500;-84
2023/02/08 09:13:06;;;;;;;16.23;11.63;;;;;;;;;;4348297;32;318212;-85
2023/02/08 09:15:34;;;;;;;28.30;18.83;;;;;;;;;;4358113;32;318674;-84
2023/02/08 09:18:01;;;;;;;24.30;15.73;;;;;;;;;;4357846;32;318502;-84
2023/02/08 09:20:28;;;;;;;63.90;36.00;;;;;;;;;;4342419;32;318361;-84
2023/02/08 09:22:55;;;;;;;28.53;18.67;;;;;;;;;;4355447;32;318321;-85
2023/02/08 09:25:26;;;;;;;23.10;13.10;;;;;;;;;;4343970;32;323000;-84
2023/02/08 09:27:52;;;;;;;24.73;15.93;;;;;;;;;;4345070;32;417192;-85
2023/02/08 09:30:19;;;;;;;17.97;12.83;;;;;;;;;;4356450;32;318357;-83
2023/02/08 09:32:47;;;;;;;22.77;14.10;;;;;;;;;;4332623;32;339733;-85
2023/02/08 09:35:14;;;;;;;17.53;12.37;;;;;;;;;;4346637;32;318399;-84
2023/02/08 09:37:41;;;;;;;23.07;13.70;;;;;;;;;;4357557;32;318205;-86
2023/02/08 09:40:21;;;;;;;21.80;14.10;;;;;;;;;;4346640;32;317431;-87
2023/02/08 09:42:54;;;;;;;24.60;14.67;;;;;;;;;;4357828;32;318430;-86
2023/02/08 09:45:40;;;;;;;17.87;12.70;;;;;;;;;;4348343;32;318380;-87
2023/02/08 09:48:16;;;;;;;29.50;17.70;;;;;;;;;;4346872;32;345678;-85
2023/02/08 09:50:46;;;;;;;19.53;13.57;;;;;;;;;;4358458;32;318285;-86
2023/02/08 09:53:17;;;;;;;14.87;11.27;;;;;;;;;;4347889;32;340079;-86
2023/02/08 09:55:47;;;;;;;29.83;19.40;;;;;;;;;;4358805;32;317659;-86
2023/02/08 09:58:21;;;;;;;25.70;16.90;;;;;;;;;;4349723;32;318299;-86
2023/02/08 10:00:50;;;;;;;25.00;15.70;;;;;;;;;;4356562;32;318548;-87
2023/02/08 10:03:27;;;;;;;24.03;13.37;;;;;;;;;;4348205;32;317543;-87
2023/02/08 10:05:54;;;;;;;19.97;13.27;;;;;;;;;;4357100;32;318275;-87
2023/02/08 10:08:21;;;;;;;21.43;13.37;;;;;;;;;;4347117;32;318376;-87
2023/02/08 10:10:54;;;;;;;24.30;12.43;;;;;;;;;;4356477;32;318181;-87
2023/02/08 10:13:41;;;;;;;21.00;13.90;;;;;;;;;;4346445;32;318100;-87
2023/02/08 10:16:15;;;;;;;17.40;11.17;;;;;;;;;;4347168;32;318548;-88
2023/02/08 10:18:49;;;;;;;21.83;13.57;;;;;;;;;;4357998;32;317931;-87
2023/02/08 10:21:30;;;;;;;21.40;13.43;;;;;;;;;;4346617;32;349103;-87
2023/02/08 10:24:19;;;;;;;17.77;11.13;;;;;;;;;;4361450;32;317676;-87
2023/02/08 10:26:48;;;;;;;15.30;10.47;;;;;;;;;;4345564;32;417780;-89
2023/02/08 10:29:30;;;;;;;19.13;12.43;;;;;;;;;;4348117;32;317622;-87
2023/02/08 10:32:07;;;;;;;23.73;13.20;;;;;;;;;;4357372;32;318050;-88
2023/02/08 10:34:44;;;;;;;17.33;10.07;;;;;;;;;;4343028;32;418035;-87
2023/02/08 10:37:16;;;;;;;23.43;15.23;;;;;;;;;;4347013;32;318259;-87
2023/02/08 10:39:43;;;;;;;19.30;12.53;;;;;;;;;;4356467;32;318357;-88
2023/02/08 10:42:15;;;;;;;15.57;11.10;;;;;;;;;;4346189;32;318253;-88
2023/02/08 10:44:54;;;;;;;12.97;9.23;;;;;;;;;;4357846;32;318066;-88
2023/02/08 10:47:33;;;;;;;15.20;10.30;;;;;;;;;;4347325;32;316985;-86
2023/02/08 10:50:04;;;;;;;20.67;9.07;;;;;;;;;;4346733;32;362224;-88
2023/02/08 10:52:32;;;;;;;20.23;13.30;;;;;;;;;;4364657;32;317217;-88
2023/02/08 10:54:59;;;;;;;15.87;11.13;;;;;;;;;;4350608;32;318102;-87
2023/02/08 10:57:30;;;;;;;16.93;12.30;;;;;;;;;;4356354;32;318553;-87
2023/02/08 11:00:02;;;;;;;23.83;15.10;;;;;;;;;;4355401;32;318265;-86
2023/02/08 11:02:32;;;;;;;16.03;10.53;;;;;;;;;;4344595;32;417449;-87
2023/02/08 11:05:02;;;;;;;24.53;12.13;;;;;;;;;;4345615;32;319442;-87
2023/02/08 11:07:29;;;;;;;26.03;16.43;;;;;;;;;;4357664;32;317453;-87
2023/02/08 11:10:15;;;;;;;30.97;17.67;;;;;;;;;;4356104;32;318338;-87
2023/02/08 11:12:43;;;;;;;18.67;12.27;;;;;;;;;;4344798;32;417398;-87
2023/02/08 11:15:23;;;;;;;20.57;12.00;;;;;;;;;;4346707;32;318401;-87
2023/02/08 11:17:57;;;;;;;28.53;16.40;;;;;;;;;;4357744;32;318014;-88
2023/02/08 11:20:30;;;;;;;26.73;18.03;;;;;;;;;;4344801;32;417369;-87
2023/02/08 11:22:58;;;;;;;19.63;12.10;;;;;;;;;;4357692;32;317583;-89
2023/02/08 11:25:34;;;;;;;23.27;11.20;;;;;;;;;;4348344;32;416947;-88
2023/02/08 11:28:01;;;;;;;25.70;14.83;;;;;;;;;;4363668;32;318048;-88
2023/02/08 11:30:28;;;;;;;30.87;18.70;;;;;;;;;;4372038;32;316358;-88
2023/02/08 11:33:17;;;;;;;28.33;16.23;;;;;;;;;;4369388;32;317012;-87
2023/02/08 11:35:54;;;;;;;18.60;11.23;;;;;;;;;;4355127;32;389576;-87
2023/02/08 11:38:26;;;;;;;36.57;20.70;;;;;;;;;;4352950;32;317517;-88
2023/02/08 11:40:55;;;;;;;39.43;21.87;;;;;;;;;;4363257;32;317387;-90
2023/02/08 11:43:24;;;;;;;44.57;27.87;;;;;;;;;;4351636;32;317496;-89
2023/02/08 11:45:53;;;;;;;40.90;21.93;;;;;;;;;;4359491;32;317745;-89
2023/02/08 11:48:24;;;;;;;39.37;20.57;;;;;;;;;;4348082;32;355011;-87
2023/02/08 11:50:58;;;;;;;31.20;15.73;;;;;;;;;;4359475;32;317997;-88
2023/02/08 11:53:31;;;;;;;36.60;20.77;;;;;;;;;;4346604;32;417697;-88
2023/02/08 11:56:20;;;;;;;41.67;19.80;;;;;;;;;;4362075;32;318102;-88
2023/02/08 11:59:02;;;;;;;27.77;16.13;;;;;;;;;;4346314;32;418273;-88
2023/02/08 12:01:32;;;;;;;29.53;17.10;;;;;;;;;;4349438;32;417981;-87
2023/02/08 12:04:01;;;;;;;35.27;18.07;;;;;;;;;;4352635;32;318068;-87
2023/02/08 12:06:55;;;;;;;33.90;20.57;;;;;;;;;;4363981;32;317554;-89
2023/02/08 12:09:36;;;;;;;32.57;17.83;;;;;;;;;;4354735;32;318180;-88
2023/02/08 12:12:17;;;;;;;33.93;17.07;;;;;;;;;;4353461;32;342447;-89
2023/02/08 12:15:00;;;;;;;46.50;26.47;;;;;;;;;;4367276;32;317589;-90
2023/02/08 12:17:42;;;;;;;35.17;21.30;;;;;;;;;;4348935;32;416046;-89
2023/02/08 12:20:26;;;;;;;39.33;21.80;;;;;;;;;;4354325;32;320434;-92
2023/02/08 12:23:04;;;;;;;26.23;18.40;;;;;;;;;;4364566;32;317646;-88
2023/02/08 12:25:37;;;;;;;32.20;18.43;;;;;;;;;;4346713;32;421463;-88
2023/02/08 12:28:10;;;;;;;29.47;19.13;;;;;;;;;;4348997;32;318118;-90
2023/02/08 12:30:45;;;;;;;31.50;19.70;;;;;;;;;;4361310;32;318002;-88
2023/02/08 12:33:28;;;;;;;33.90;20.07;;;;;;;;;;4351533;32;317960;-88
2023/02/08 12:36:09;;;;;;;45.27;25.67;;;;;;;;;;4360639;32;331618;-87
2023/02/08 12:42:20;;;;;;;28.43;17.90;;;;;;;;;;4332606;33;387947;-88
2023/02/08 12:45:02;;;;;;;25.17;16.20;;;;;;;;;;4342375;33;316224;-88
2023/02/08 12:47:42;;;;;;;24.13;15.40;;;;;;;;;;4349877;32;418040;-88
2023/02/08 12:50:19;;;;;;;26.87;16.27;;;;;;;;;;4359641;32;318235;-88
2023/02/08 12:52:54;;;;;;;36.90;17.83;;;;;;;;;;4366816;32;317340;-87
2023/02/08 12:55:28;;;;;;;35.10;22.30;;;;;;;;;;4351411;32;318274;-87
2023/02/08 12:57:59;;;;;;;33.30;20.43;;;;;;;;;;4360303;32;317400;-88
2023/02/08 13:00:30;;;;;;;31.70;19.10;;;;;;;;;;4346579;32;418689;-88
2023/02/08 13:03:05;;;;;;;26.80;15.63;;;;;;;;;;4360754;32;317510;-90
2023/02/08 13:05:38;;;;;;;23.37;15.00;;;;;;;;;;4347063;32;418392;-88
2023/02/08 13:08:14;;;;;;;29.27;18.83;;;;;;;;;;4355024;32;317491;-88
2023/02/08 13:10:47;;;;;;;36.33;21.87;;;;;;;;;;4359234;32;317577;-88
2023/02/08 13:13:19;;;;;;;28.27;16.83;;;;;;;;;;4359533;32;318251;-88
2023/02/08 13:15:53;;;;;;;42.17;23.07;;;;;;;;;;4362088;32;318383;-88
2023/02/08 13:18:24;;;;;;;24.73;15.80;;;;;;;;;;4352566;32;318166;-88
2023/02/08 13:20:53;;;;;;;36.47;19.53;;;;;;;;;;4364816;32;317416;-88
2023/02/08 13:23:26;;;;;;;45.47;21.50;;;;;;;;;;4353325;32;317754;-87
2023/02/08 13:25:57;;;;;;;40.23;24.10;;;;;;;;;;4360111;32;317523;-90
2023/02/08 13:28:26;;;;;;;37.80;21.97;;;;;;;;;;4346642;32;417269;-93
2023/02/08 13:31:01;;;;;;;25.03;17.07;;;;;;;;;;4359590;32;318532;-88
2023/02/08 13:33:34;;;;;;;27.80;16.23;;;;;;;;;;4347078;32;418085;-89
2023/02/08 13:36:02;;;;;;;32.77;16.90;;;;;;;;;;4349252;32;317576;-88
2023/02/08 13:38:31;;;;;;;26.30;15.27;;;;;;;;;;4359343;32;317420;-90
2023/02/08 13:41:08;;;;;;;37.03;18.83;;;;;;;;;;4360581;32;317318;-89
2023/02/08 13:43:41;;;;;;;37.43;22.23;;;;;;;;;;4348067;32;414889;-90
2023/02/08 13:46:10;;;;;;;37.17;21.07;;;;;;;;;;4356664;32;317429;-89
2023/02/08 13:48:48;;;;;;;33.53;17.07;;;;;;;;;;4372776;32;316232;-90
2023/02/08 13:51:58;;;;;;;25.87;17.43;;;;;;;;;;4364416;32;316160;-89
2023/02/08 13:54:25;;;;;;;25.63;15.60;;;;;;;;;;4356134;32;420743;-88
2023/02/08 13:56:54;;;;;;;32.07;19.73;;;;;;;;;;4376095;32;316216;-90
2023/02/08 13:59:28;;;;;;;33.00;18.83;;;;;;;;;;4357354;32;318032;-90
2023/02/08 14:02:22;;;;;;;28.40;18.10;;;;;;;;;;4361315;32;317924;-90
2023/02/08 14:04:50;;;;;;;26.13;17.67;;;;;;;;;;4346506;32;418081;-89
2023/02/08 14:07:28;;;;;;;34.97;21.17;;;;;;;;;;4348903;32;318170;-88
2023/02/08 14:10:15;;;;;;;35.90;21.23;;;;;;;;;;4358423;32;318675;-89
2023/02/08 14:12:48;;;;;;;40.17;20.67;;;;;;;;;;4346719;32;415982;-89
2023/02/08 14:15:28;;;;;;;36.33;20.60;;;;;;;;;;4348378;32;317466;-90
2023/02/08 14:17:58;;;;;;;41.67;22.10;;;;;;;;;;4359407;32;317794;-88
2023/02/08 14:20:29;;;;;;;32.73;20.03;;;;;;;;;;4346932;32;418791;-91
2023/02/08 14:22:59;;;;;;;34.57;21.20;;;;;;;;;;4360582;32;317241;-89
2023/02/08 14:25:29;;;;;;;34.67;18.47;;;;;;;;;;4347635;32;415643;-89
2023/02/08 14:27:59;;;;;;;37.20;22.87;;;;;;;;;;4357983;32;318580;-89
2023/02/08 14:30:30;;;;;;;40.13;23.13;;;;;;;;;;4347211;32;420111;-88